sensor_id;sensor_type;location;lat;lon;timestamp;pressure;altitude;pressure_sealevel;temperature;humidity
79686;BME280;69153;47.918;11.428;2023-06-14T00:00:38;94657.25;;;14.49;45.26
79686;BME280;69153;47.918;11.428;2023-06-14T00:03:08;94659.63;;;14.47;45.01
79686;BME280;69153;47.918;11.428;2023-06-14T00:05:38;94659.97;;;14.40;45.07
79686;BME280;69153;47.918;11.428;2023-06-14T00:08:06;94662.63;;;14.31;44.93
79686;BME280;69153;47.918;11.428;2023-06-14T00:10:38;94660.47;;;14.20;45.01
79686;BME280;69153;47.918;11.428;2023-06-14T00:13:06;94659.63;;;14.14;45.31
79686;BME280;69153;47.918;11.428;2023-06-14T00:15:32;94665.13;;;14.11;44.41
79686;BME280;69153;47.918;11.428;2023-06-14T00:17:58;94663.22;;;14.02;44.98
79686;BME280;69153;47.918;11.428;2023-06-14T00:20:30;94661.94;;;13.98;44.88
79686;BME280;69153;47.918;11.428;2023-06-14T00:22:58;94667.25;;;13.98;44.94
79686;BME280;69153;47.918;11.428;2023-06-14T00:25:24;94656.72;;;14.03;44.73
79686;BME280;69153;47.918;11.428;2023-06-14T00:27:53;94667.84;;;14.02;44.25
79686;BME280;69153;47.918;11.428;2023-06-14T00:30:19;94668.00;;;13.98;44.01
79686;BME280;69153;47.918;11.428;2023-06-14T00:32:45;94667.00;;;13.86;44.27
79686;BME280;69153;47.918;11.428;2023-06-14T00:35:11;94672.19;;;13.81;44.14
79686;BME280;69153;47.918;11.428;2023-06-14T00:37:37;94673.28;;;13.65;44.51
79686;BME280;69153;47.918;11.428;2023-06-14T00:40:03;94663.53;;;13.62;44.43
79686;BME280;69153;47.918;11.428;2023-06-14T00:42:30;94661.34;;;13.51;44.67
79686;BME280;69153;47.918;11.428;2023-06-14T00:44:56;94659.16;;;13.50;44.71
79686;BME280;69153;47.918;11.428;2023-06-14T00:47:21;94657.94;;;13.51;44.69
79686;BME280;69153;47.918;11.428;2023-06-14T00:49:48;94656.47;;;13.41;45.43
79686;BME280;69153;47.918;11.428;2023-06-14T00:52:15;94663.59;;;13.35;45.79
79686;BME280;69153;47.918;11.428;2023-06-14T00:54:41;94662.44;;;13.36;45.85
79686;BME280;69153;47.918;11.428;2023-06-14T00:57:07;94663.31;;;13.33;45.90
79686;BME280;69153;47.918;11.428;2023-06-14T00:59:35;94660.34;;;13.31;45.72
79686;BME280;69153;47.918;11.428;2023-06-14T01:02:03;94662.13;;;13.34;45.33
79686;BME280;69153;47.918;11.428;2023-06-14T01:04:29;94665.53;;;13.34;45.39
79686;BME280;69153;47.918;11.428;2023-06-14T01:06:59;94661.50;;;13.39;45.38
79686;BME280;69153;47.918;11.428;2023-06-14T01:14:50;94655.19;;;13.36;44.87
79686;BME280;69153;47.918;11.428;2023-06-14T01:17:21;94662.13;;;13.34;44.65
79686;BME280;69153;47.918;11.428;2023-06-14T01:19:47;94656.66;;;13.28;44.74
79686;BME280;69153;47.918;11.428;2023-06-14T01:22:12;94664.78;;;13.24;44.65
79686;BME280;69153;47.918;11.428;2023-06-14T01:24:38;94670.13;;;13.15;44.77
79686;BME280;69153;47.918;11.428;2023-06-14T01:27:06;94663.47;;;13.11;45.01
79686;BME280;69153;47.918;11.428;2023-06-14T01:29:33;94661.25;;;13.09;44.99
79686;BME280;69153;47.918;11.428;2023-06-14T01:32:02;94671.72;;;13.13;45.04
79686;BME280;69153;47.918;11.428;2023-06-14T01:34:27;94660.66;;;13.05;44.84
79686;BME280;69153;47.918;11.428;2023-06-14T01:36:54;94663.31;;;13.05;44.91
79686;BME280;69153;47.918;11.428;2023-06-14T01:39:23;94663.91;;;13.00;44.91
79686;BME280;69153;47.918;11.428;2023-06-14T01:41:50;94663.16;;;12.91;45.03
79686;BME280;69153;47.918;11.428;2023-06-14T01:44:18;94665.97;;;12.78;45.28
79686;BME280;69153;47.918;11.428;2023-06-14T01:46:45;94658.75;;;12.69;45.15
79686;BME280;69153;47.918;11.428;2023-06-14T01:49:11;94658.44;;;12.67;45.49
79686;BME280;69153;47.918;11.428;2023-06-14T01:51:37;94656.97;;;12.66;45.26
79686;BME280;69153;47.918;11.428;2023-06-14T01:54:02;94657.09;;;12.63;45.05
79686;BME280;69153;47.918;11.428;2023-06-14T01:56:28;94653.41;;;12.60;45.11
79686;BME280;69153;47.918;11.428;2023-06-14T01:58:53;94657.25;;;12.68;45.14
79686;BME280;69153;47.918;11.428;2023-06-14T02:01:19;94658.88;;;12.57;45.89
79686;BME280;69153;47.918;11.428;2023-06-14T02:03:47;94656.06;;;12.42;45.81
79686;BME280;69153;47.918;11.428;2023-06-14T02:06:13;94655.75;;;12.31;46.00
79686;BME280;69153;47.918;11.428;2023-06-14T02:08:41;94655.75;;;12.31;45.85
79686;BME280;69153;47.918;11.428;2023-06-14T02:11:07;94660.00;;;12.28;46.07
79686;BME280;69153;47.918;11.428;2023-06-14T02:13:33;94662.50;;;12.23;46.42
79686;BME280;69153;47.918;11.428;2023-06-14T02:16:00;94652.03;;;12.28;46.23
79686;BME280;69153;47.918;11.428;2023-06-14T02:18:25;94651.28;;;12.19;47.11
79686;BME280;69153;47.918;11.428;2023-06-14T02:20:51;94654.50;;;12.13;47.42
79686;BME280;69153;47.918;11.428;2023-06-14T02:23:17;94649.63;;;12.12;47.55
79686;BME280;69153;47.918;11.428;2023-06-14T02:25:42;94650.81;;;12.11;47.72
79686;BME280;69153;47.918;11.428;2023-06-14T02:28:10;94652.16;;;12.06;47.54
79686;BME280;69153;47.918;11.428;2023-06-14T02:30:35;94644.75;;;12.10;47.40
79686;BME280;69153;47.918;11.428;2023-06-14T02:33:01;94644.75;;;12.10;47.66
79686;BME280;69153;47.918;11.428;2023-06-14T02:35:27;94651.84;;;12.13;47.22
79686;BME280;69153;47.918;11.428;2023-06-14T02:37:53;94647.72;;;12.12;47.36
79686;BME280;69153;47.918;11.428;2023-06-14T02:40:19;94647.72;;;12.12;47.15
79686;BME280;69153;47.918;11.428;2023-06-14T02:42:45;94651.56;;;12.11;47.21
79686;BME280;69153;47.918;11.428;2023-06-14T02:45:10;94657.31;;;12.10;47.30
79686;BME280;69153;47.918;11.428;2023-06-14T02:47:36;94655.25;;;12.14;46.97
79686;BME280;69153;47.918;11.428;2023-06-14T02:50:02;94660.69;;;12.10;46.84
79686;BME280;69153;47.918;11.428;2023-06-14T02:52:28;94661.56;;;12.07;46.92
79686;BME280;69153;47.918;11.428;2023-06-14T02:54:54;94661.28;;;12.05;46.92
79686;BME280;69153;47.918;11.428;2023-06-14T02:57:20;94653.59;;;11.98;46.74
79686;BME280;69153;47.918;11.428;2023-06-14T02:59:46;94658.59;;;11.96;46.68
79686;BME280;69153;47.918;11.428;2023-06-14T03:02:11;94658.59;;;11.96;46.53
79686;BME280;69153;47.918;11.428;2023-06-14T03:04:37;94663.75;;;11.91;46.47
79686;BME280;69153;47.918;11.428;2023-06-14T03:07:03;94657.09;;;11.86;46.48
79686;BME280;69153;47.918;11.428;2023-06-14T03:09:37;94659.59;;;11.80;46.58
79686;BME280;69153;47.918;11.428;2023-06-14T03:12:04;94659.28;;;11.78;46.80
79686;BME280;69153;47.918;11.428;2023-06-14T03:14:31;94669.16;;;11.78;47.09
79686;BME280;69153;47.918;11.428;2023-06-14T03:16:57;94661.78;;;11.82;46.60
79686;BME280;69153;47.918;11.428;2023-06-14T03:19:23;94661.78;;;11.82;46.58
79686;BME280;69153;47.918;11.428;2023-06-14T03:21:48;94660.88;;;11.76;46.56
79686;BME280;69153;47.918;11.428;2023-06-14T03:24:15;94657.16;;;11.73;46.49
79686;BME280;69153;47.918;11.428;2023-06-14T03:26:42;94669.38;;;11.71;46.66
79686;BME280;69153;47.918;11.428;2023-06-14T03:29:07;94672.59;;;11.66;46.70
79686;BME280;69153;47.918;11.428;2023-06-14T03:31:34;94668.59;;;11.61;46.98
79686;BME280;69153;47.918;11.428;2023-06-14T03:34:00;94666.22;;;11.54;47.19
79686;BME280;69153;47.918;11.428;2023-06-14T03:36:26;94672.28;;;11.64;46.91
79686;BME280;69153;47.918;11.428;2023-06-14T03:38:53;94673.03;;;11.64;47.23
79686;BME280;69153;47.918;11.428;2023-06-14T03:41:19;94679.41;;;11.67;47.17
79686;BME280;69153;47.918;11.428;2023-06-14T03:43:44;94677.28;;;11.62;47.30
79686;BME280;69153;47.918;11.428;2023-06-14T03:46:10;94681.56;;;11.59;47.66
79686;BME280;69153;47.918;11.428;2023-06-14T03:48:35;94681.09;;;11.52;47.98
79686;BME280;69153;47.918;11.428;2023-06-14T03:51:00;94682.38;;;11.47;48.48
79686;BME280;69153;47.918;11.428;2023-06-14T03:53:26;94685.16;;;11.43;48.61
79686;BME280;69153;47.918;11.428;2023-06-14T03:55:53;94686.31;;;11.42;48.87
79686;BME280;69153;47.918;11.428;2023-06-14T03:58:19;94687.81;;;11.43;49.28
79686;BME280;69153;47.918;11.428;2023-06-14T04:00:45;94685.03;;;11.47;49.01
79686;BME280;69153;47.918;11.428;2023-06-14T04:03:10;94694.91;;;11.46;49.44
79686;BME280;69153;47.918;11.428;2023-06-14T04:05:38;94699.22;;;11.53;49.75
79686;BME280;69153;47.918;11.428;2023-06-14T04:08:08;94690.88;;;11.64;49.38
79686;BME280;69153;47.918;11.428;2023-06-14T04:10:34;94699.56;;;11.64;49.71
79686;BME280;69153;47.918;11.428;2023-06-14T04:13:00;94697.69;;;11.74;49.23
79686;BME280;69153;47.918;11.428;2023-06-14T04:15:25;94697.75;;;11.83;49.41
79686;BME280;69153;47.918;11.428;2023-06-14T04:17:53;94701.34;;;11.89;49.43
79686;BME280;69153;47.918;11.428;2023-06-14T04:20:23;94706.22;;;11.91;48.80
79686;BME280;69153;47.918;11.428;2023-06-14T04:22:51;94703.91;;;12.02;49.21
79686;BME280;69153;47.918;11.428;2023-06-14T04:25:18;94706.00;;;12.07;48.95
79686;BME280;69153;47.918;11.428;2023-06-14T04:27:43;94703.19;;;12.10;48.87
79686;BME280;69153;47.918;11.428;2023-06-14T04:30:09;94704.13;;;12.26;48.28
79686;BME280;69153;47.918;11.428;2023-06-14T04:32:35;94709.19;;;12.33;48.12
79686;BME280;69153;47.918;11.428;2023-06-14T04:35:06;94705.31;;;12.34;48.12
79686;BME280;69153;47.918;11.428;2023-06-14T04:37:32;94713.91;;;12.38;48.32
79686;BME280;69153;47.918;11.428;2023-06-14T04:39:58;94715.25;;;12.42;48.41
79686;BME280;69153;47.918;11.428;2023-06-14T04:42:24;94716.41;;;12.32;48.23
79686;BME280;69153;47.918;11.428;2023-06-14T04:44:51;94714.03;;;12.34;48.88
79686;BME280;69153;47.918;11.428;2023-06-14T04:47:20;94719.81;;;12.42;48.82
79686;BME280;69153;47.918;11.428;2023-06-14T04:49:46;94727.94;;;12.47;48.75
79686;BME280;69153;47.918;11.428;2023-06-14T04:52:11;94727.25;;;12.65;48.67
79686;BME280;69153;47.918;11.428;2023-06-14T04:54:39;94730.50;;;12.78;48.55
79686;BME280;69153;47.918;11.428;2023-06-14T04:57:10;94736.44;;;12.92;48.55
79686;BME280;69153;47.918;11.428;2023-06-14T04:59:45;94737.47;;;13.03;48.39
79686;BME280;69153;47.918;11.428;2023-06-14T05:02:11;94734.06;;;13.12;48.34
79686;BME280;69153;47.918;11.428;2023-06-14T05:04:37;94739.69;;;13.14;48.26
79686;BME280;69153;47.918;11.428;2023-06-14T05:07:08;94745.50;;;13.31;48.20
79686;BME280;69153;47.918;11.428;2023-06-14T05:09:35;94744.28;;;13.41;48.25
79686;BME280;69153;47.918;11.428;2023-06-14T05:12:01;94741.91;;;13.52;48.09
79686;BME280;69153;47.918;11.428;2023-06-14T05:14:26;94737.47;;;13.67;47.84
79686;BME280;69153;47.918;11.428;2023-06-14T05:16:52;94747.63;;;13.78;47.39
79686;BME280;69153;47.918;11.428;2023-06-14T05:19:19;94746.28;;;13.91;47.19
79686;BME280;69153;47.918;11.428;2023-06-14T05:21:47;94751.31;;;13.99;46.88
79686;BME280;69153;47.918;11.428;2023-06-14T05:24:13;94739.88;;;14.07;47.25
79686;BME280;69153;47.918;11.428;2023-06-14T05:26:38;94740.88;;;14.19;45.59
79686;BME280;69153;47.918;11.428;2023-06-14T05:29:04;94742.28;;;14.29;45.52
79686;BME280;69153;47.918;11.428;2023-06-14T05:31:29;94746.13;;;14.37;44.89
79686;BME280;69153;47.918;11.428;2023-06-14T05:33:55;94741.97;;;14.45;44.32
79686;BME280;69153;47.918;11.428;2023-06-14T05:36:20;94738.53;;;14.54;43.88
79686;BME280;69153;47.918;11.428;2023-06-14T05:38:46;94742.31;;;14.62;43.57
79686;BME280;69153;47.918;11.428;2023-06-14T05:41:12;94738.69;;;14.74;43.43
79686;BME280;69153;47.918;11.428;2023-06-14T05:43:37;94740.28;;;14.81;43.47
79686;BME280;69153;47.918;11.428;2023-06-14T05:46:03;94744.47;;;14.73;44.39
79686;BME280;69153;47.918;11.428;2023-06-14T05:48:30;94744.16;;;14.80;43.87
79686;BME280;69153;47.918;11.428;2023-06-14T05:50:58;94743.75;;;14.96;44.31
79686;BME280;69153;47.918;11.428;2023-06-14T05:53:24;94739.47;;;15.13;44.10
79686;BME280;69153;47.918;11.428;2023-06-14T05:55:50;94745.75;;;15.25;43.73
79686;BME280;69153;47.918;11.428;2023-06-14T05:58:18;94745.78;;;15.40;44.26
79686;BME280;69153;47.918;11.428;2023-06-14T06:00:45;94747.59;;;15.33;43.07
79686;BME280;69153;47.918;11.428;2023-06-14T06:03:11;94749.28;;;15.46;43.18
79686;BME280;69153;47.918;11.428;2023-06-14T06:05:38;94752.47;;;15.59;43.09
79686;BME280;69153;47.918;11.428;2023-06-14T06:08:04;94750.19;;;15.66;42.87
79686;BME280;69153;47.918;11.428;2023-06-14T06:10:29;94751.38;;;15.80;41.81
79686;BME280;69153;47.918;11.428;2023-06-14T06:12:55;94752.56;;;15.94;41.94
79686;BME280;69153;47.918;11.428;2023-06-14T06:15:20;94749.63;;;16.06;42.68
79686;BME280;69153;47.918;11.428;2023-06-14T06:17:46;94748.31;;;16.17;41.58
79686;BME280;69153;47.918;11.428;2023-06-14T06:20:12;94749.41;;;16.25;41.81
79686;BME280;69153;47.918;11.428;2023-06-14T06:22:38;94755.31;;;16.29;41.64
79686;BME280;69153;47.918;11.428;2023-06-14T06:25:04;94754.97;;;16.21;40.83
79686;BME280;69153;47.918;11.428;2023-06-14T06:27:32;94759.44;;;16.30;41.44
79686;BME280;69153;47.918;11.428;2023-06-14T06:29:57;94756.94;;;16.41;41.08
79686;BME280;69153;47.918;11.428;2023-06-14T06:32:24;94762.44;;;16.52;41.18
79686;BME280;69153;47.918;11.428;2023-06-14T06:34:50;94755.59;;;16.66;40.87
79686;BME280;69153;47.918;11.428;2023-06-14T06:37:15;94758.56;;;16.68;40.45
79686;BME280;69153;47.918;11.428;2023-06-14T06:39:41;94762.13;;;16.79;40.72
79686;BME280;69153;47.918;11.428;2023-06-14T06:42:06;94757.63;;;16.91;40.86
79686;BME280;69153;47.918;11.428;2023-06-14T06:44:33;94756.31;;;16.81;40.01
79686;BME280;69153;47.918;11.428;2023-06-14T06:46:58;94760.78;;;16.90;39.52
79686;BME280;69153;47.918;11.428;2023-06-14T06:49:23;94763.88;;;17.03;39.51
79686;BME280;69153;47.918;11.428;2023-06-14T06:52:00;94757.78;;;17.23;40.68
79686;BME280;69153;47.918;11.428;2023-06-14T06:54:27;94760.97;;;17.27;38.95
79686;BME280;69153;47.918;11.428;2023-06-14T06:56:52;94763.13;;;17.23;39.16
79686;BME280;69153;47.918;11.428;2023-06-14T06:59:18;94757.50;;;17.21;39.58
79686;BME280;69153;47.918;11.428;2023-06-14T07:01:43;94759.09;;;17.33;39.74
79686;BME280;69153;47.918;11.428;2023-06-14T07:04:09;94755.13;;;17.48;39.33
79686;BME280;69153;47.918;11.428;2023-06-14T07:06:34;94755.97;;;17.34;38.35
79686;BME280;69153;47.918;11.428;2023-06-14T07:09:00;94760.06;;;17.56;39.02
79686;BME280;69153;47.918;11.428;2023-06-14T07:11:30;94767.38;;;17.75;39.30
79686;BME280;69153;47.918;11.428;2023-06-14T07:13:55;94767.00;;;17.88;39.35
79686;BME280;69153;47.918;11.428;2023-06-14T07:16:20;94766.28;;;17.93;39.41
79686;BME280;69153;47.918;11.428;2023-06-14T07:18:46;94772.31;;;17.82;38.81
79686;BME280;69153;47.918;11.428;2023-06-14T07:21:12;94771.91;;;17.90;39.67
79686;BME280;69153;47.918;11.428;2023-06-14T07:23:37;94781.59;;;18.13;39.50
79686;BME280;69153;47.918;11.428;2023-06-14T07:26:03;94781.75;;;18.35;39.35
79686;BME280;69153;47.918;11.428;2023-06-14T07:28:28;94782.34;;;18.50;38.95
79686;BME280;69153;47.918;11.428;2023-06-14T07:30:53;94777.34;;;18.64;38.40
79686;BME280;69153;47.918;11.428;2023-06-14T07:33:19;94774.94;;;18.71;38.91
79686;BME280;69153;47.918;11.428;2023-06-14T07:35:44;94769.41;;;18.80;38.13
79686;BME280;69153;47.918;11.428;2023-06-14T07:38:11;94779.16;;;18.83;37.10
79686;BME280;69153;47.918;11.428;2023-06-14T07:40:36;94776.47;;;18.83;37.11
79686;BME280;69153;47.918;11.428;2023-06-14T07:43:02;94779.72;;;18.99;37.25
79686;BME280;69153;47.918;11.428;2023-06-14T07:45:27;94779.78;;;19.10;36.31
79686;BME280;69153;47.918;11.428;2023-06-14T07:47:53;94775.63;;;19.09;35.82
79686;BME280;69153;47.918;11.428;2023-06-14T07:50:18;94775.16;;;19.10;35.47
79686;BME280;69153;47.918;11.428;2023-06-14T07:52:45;94780.13;;;19.28;34.47
79686;BME280;69153;47.918;11.428;2023-06-14T07:55:10;94774.72;;;19.23;32.35
79686;BME280;69153;47.918;11.428;2023-06-14T07:57:35;94770.41;;;19.48;32.33
79686;BME280;69153;47.918;11.428;2023-06-14T08:00:03;94769.28;;;19.77;33.15
79686;BME280;69153;47.918;11.428;2023-06-14T08:02:31;94768.09;;;19.83;33.33
79686;BME280;69153;47.918;11.428;2023-06-14T08:04:56;94767.31;;;19.77;31.17
79686;BME280;69153;47.918;11.428;2023-06-14T08:07:22;94770.03;;;19.94;32.44
79686;BME280;69153;47.918;11.428;2023-06-14T08:09:48;94779.56;;;20.01;32.82
79686;BME280;69153;47.918;11.428;2023-06-14T08:12:13;94777.88;;;20.03;32.53
79686;BME280;69153;47.918;11.428;2023-06-14T08:14:39;94778.38;;;20.07;32.84
79686;BME280;69153;47.918;11.428;2023-06-14T08:17:05;94780.31;;;20.18;32.77
79686;BME280;69153;47.918;11.428;2023-06-14T08:19:30;94775.91;;;20.15;33.02
79686;BME280;69153;47.918;11.428;2023-06-14T08:21:56;94777.88;;;20.20;30.66
79686;BME280;69153;47.918;11.428;2023-06-14T08:24:22;94781.53;;;20.28;31.58
79686;BME280;69153;47.918;11.428;2023-06-14T08:26:52;94793.81;;;20.40;31.68
79686;BME280;69153;47.918;11.428;2023-06-14T08:29:18;94786.22;;;20.61;30.14
79686;BME280;69153;47.918;11.428;2023-06-14T08:31:43;94794.25;;;20.83;29.27
79686;BME280;69153;47.918;11.428;2023-06-14T08:34:09;94793.28;;;20.86;28.62
79686;BME280;69153;47.918;11.428;2023-06-14T08:36:37;94793.72;;;20.90;27.56
79686;BME280;69153;47.918;11.428;2023-06-14T08:39:03;94789.09;;;20.85;28.52
79686;BME280;69153;47.918;11.428;2023-06-14T08:41:28;94795.44;;;20.93;27.75
79686;BME280;69153;47.918;11.428;2023-06-14T08:43:55;94800.88;;;20.88;27.75
79686;BME280;69153;47.918;11.428;2023-06-14T08:46:25;94798.88;;;20.99;27.90
79686;BME280;69153;47.918;11.428;2023-06-14T08:48:55;94791.00;;;21.07;26.75
79686;BME280;69153;47.918;11.428;2023-06-14T08:51:25;94798.34;;;21.07;28.01
79686;BME280;69153;47.918;11.428;2023-06-14T08:53:54;94802.53;;;20.96;27.71
79686;BME280;69153;47.918;11.428;2023-06-14T08:56:25;94791.03;;;21.01;26.97
79686;BME280;69153;47.918;11.428;2023-06-14T08:58:51;94791.22;;;21.26;27.16
79686;BME280;69153;47.918;11.428;2023-06-14T09:01:17;94793.88;;;21.31;26.49
79686;BME280;69153;47.918;11.428;2023-06-14T09:03:44;94805.44;;;21.26;26.13
79686;BME280;69153;47.918;11.428;2023-06-14T09:06:11;94802.00;;;21.20;26.00
79686;BME280;69153;47.918;11.428;2023-06-14T09:08:46;94800.28;;;21.23;25.62
79686;BME280;69153;47.918;11.428;2023-06-14T09:11:13;94793.63;;;21.35;26.10
79686;BME280;69153;47.918;11.428;2023-06-14T09:13:40;94803.38;;;21.49;25.97
79686;BME280;69153;47.918;11.428;2023-06-14T09:16:06;94795.34;;;21.38;25.33
79686;BME280;69153;47.918;11.428;2023-06-14T09:18:43;94787.44;;;21.51;26.03
79686;BME280;69153;47.918;11.428;2023-06-14T09:21:11;94801.78;;;21.70;25.66
79686;BME280;69153;47.918;11.428;2023-06-14T09:23:38;94803.53;;;21.68;25.21
79686;BME280;69153;47.918;11.428;2023-06-14T09:26:11;94796.50;;;21.95;25.89
79686;BME280;69153;47.918;11.428;2023-06-14T09:28:48;94804.78;;;22.08;25.68
79686;BME280;69153;47.918;11.428;2023-06-14T09:31:16;94805.03;;;22.10;25.71
79686;BME280;69153;47.918;11.428;2023-06-14T09:33:43;94809.41;;;22.19;25.98
79686;BME280;69153;47.918;11.428;2023-06-14T09:38:55;94804.56;;;22.06;25.46
79686;BME280;69153;47.918;11.428;2023-06-14T09:41:34;94813.31;;;22.18;25.06
79686;BME280;69153;47.918;11.428;2023-06-14T09:44:01;94809.56;;;22.26;25.20
79686;BME280;69153;47.918;11.428;2023-06-14T09:46:28;94816.97;;;22.20;25.26
79686;BME280;69153;47.918;11.428;2023-06-14T09:48:58;94811.19;;;22.40;25.05
79686;BME280;69153;47.918;11.428;2023-06-14T09:51:24;94807.00;;;22.45;24.74
79686;BME280;69153;47.918;11.428;2023-06-14T09:53:50;94811.50;;;22.31;25.17
79686;BME280;69153;47.918;11.428;2023-06-14T09:56:59;94818.66;;;22.23;24.76
79686;BME280;69153;47.918;11.428;2023-06-14T09:59:21;94808.84;;;22.26;24.83
79686;BME280;69153;47.918;11.428;2023-06-14T10:01:57;94815.66;;;22.62;25.91
79686;BME280;69153;47.918;11.428;2023-06-14T10:04:25;94807.13;;;22.58;24.78
79686;BME280;69153;47.918;11.428;2023-06-14T10:06:53;94809.59;;;22.56;24.31
79686;BME280;69153;47.918;11.428;2023-06-14T10:09:20;94807.41;;;22.55;25.66
79686;BME280;69153;47.918;11.428;2023-06-14T10:11:47;94802.53;;;22.77;25.35
79686;BME280;69153;47.918;11.428;2023-06-14T10:14:14;94793.72;;;22.77;24.58
79686;BME280;69153;47.918;11.428;2023-06-14T10:16:58;94794.56;;;22.91;25.56
79686;BME280;69153;47.918;11.428;2023-06-14T10:20:10;94803.22;;;23.08;25.39
79686;BME280;69153;47.918;11.428;2023-06-14T10:22:42;94813.53;;;23.09;24.59
79686;BME280;69153;47.918;11.428;2023-06-14T10:25:13;94802.66;;;23.15;23.15
79686;BME280;69153;47.918;11.428;2023-06-14T10:27:50;94793.81;;;23.14;24.53
79686;BME280;69153;47.918;11.428;2023-06-14T10:30:16;94798.94;;;23.18;24.77
79686;BME280;69153;47.918;11.428;2023-06-14T10:33:06;94801.28;;;23.27;24.75
79686;BME280;69153;47.918;11.428;2023-06-14T10:35:32;94792.53;;;23.40;24.76
79686;BME280;69153;47.918;11.428;2023-06-14T10:38:12;94795.13;;;23.51;24.10
79686;BME280;69153;47.918;11.428;2023-06-14T10:40:39;94787.81;;;23.65;23.60
79686;BME280;69153;47.918;11.428;2023-06-14T10:43:24;94802.44;;;23.56;24.39
79686;BME280;69153;47.918;11.428;2023-06-14T10:46:15;94797.78;;;23.57;24.48
79686;BME280;69153;47.918;11.428;2023-06-14T10:48:42;94790.75;;;23.67;24.35
79686;BME280;69153;47.918;11.428;2023-06-14T10:51:20;94797.28;;;23.58;22.99
79686;BME280;69153;47.918;11.428;2023-06-14T10:53:49;94796.31;;;23.56;24.72
79686;BME280;69153;47.918;11.428;2023-06-14T10:56:32;94791.78;;;24.01;24.65
79686;BME280;69153;47.918;11.428;2023-06-14T10:58:58;94777.41;;;24.25;23.71
79686;BME280;69153;47.918;11.428;2023-06-14T11:01:36;94792.75;;;24.36;24.23
79686;BME280;69153;47.918;11.428;2023-06-14T11:04:11;94785.81;;;24.21;23.78
79686;BME280;69153;47.918;11.428;2023-06-14T11:06:49;94793.06;;;24.13;23.55
79686;BME280;69153;47.918;11.428;2023-06-14T11:12:10;94785.94;;;24.61;23.55
79686;BME280;69153;47.918;11.428;2023-06-14T11:14:39;94793.00;;;24.51;23.36
79686;BME280;69153;47.918;11.428;2023-06-14T11:17:05;94801.81;;;24.38;22.99
79686;BME280;69153;47.918;11.428;2023-06-14T11:19:30;94780.91;;;24.20;23.22
79686;BME280;69153;47.918;11.428;2023-06-14T11:21:57;94786.84;;;24.50;23.52
79686;BME280;69153;47.918;11.428;2023-06-14T11:24:22;94775.06;;;24.48;22.78
79686;BME280;69153;47.918;11.428;2023-06-14T11:26:48;94786.88;;;24.64;24.14
79686;BME280;69153;47.918;11.428;2023-06-14T11:29:16;94788.16;;;24.76;23.22
79686;BME280;69153;47.918;11.428;2023-06-14T11:31:45;94771.16;;;24.75;23.45
79686;BME280;69153;47.918;11.428;2023-06-14T11:34:12;94781.69;;;24.79;23.68
79686;BME280;69153;47.918;11.428;2023-06-14T11:36:38;94781.69;;;24.79;23.04
79686;BME280;69153;47.918;11.428;2023-06-14T11:39:05;94775.25;;;24.95;23.36
79686;BME280;69153;47.918;11.428;2023-06-14T11:41:40;94764.75;;;25.05;22.35
79686;BME280;69153;47.918;11.428;2023-06-14T11:44:07;94774.94;;;24.99;22.69
79686;BME280;69153;47.918;11.428;2023-06-14T11:46:33;94767.03;;;25.01;23.66
79686;BME280;69153;47.918;11.428;2023-06-14T11:48:58;94773.25;;;25.35;23.21
79686;BME280;69153;47.918;11.428;2023-06-14T11:51:29;94763.66;;;25.34;22.03
79686;BME280;69153;47.918;11.428;2023-06-14T11:53:55;94765.78;;;25.15;22.78
79686;BME280;69153;47.918;11.428;2023-06-14T11:56:21;94770.69;;;25.16;23.24
79686;BME280;69153;47.918;11.428;2023-06-14T11:58:47;94766.25;;;24.87;23.05
79686;BME280;69153;47.918;11.428;2023-06-14T12:01:18;94774.00;;;25.22;23.95
79686;BME280;69153;47.918;11.428;2023-06-14T12:03:48;94761.81;;;25.16;23.03
79686;BME280;69153;47.918;11.428;2023-06-14T12:06:14;94759.09;;;25.16;24.24
79686;BME280;69153;47.918;11.428;2023-06-14T12:08:40;94760.34;;;25.15;23.10
79686;BME280;69153;47.918;11.428;2023-06-14T12:11:12;94764.84;;;25.12;23.11
79686;BME280;69153;47.918;11.428;2023-06-14T12:13:39;94759.94;;;25.11;23.46
79686;BME280;69153;47.918;11.428;2023-06-14T12:16:11;94762.63;;;25.24;22.79
79686;BME280;69153;47.918;11.428;2023-06-14T12:18:39;94761.91;;;24.97;22.96
79686;BME280;69153;47.918;11.428;2023-06-14T12:21:07;94761.06;;;24.76;22.37
79686;BME280;69153;47.918;11.428;2023-06-14T12:23:43;94759.88;;;24.71;24.44
79686;BME280;69153;47.918;11.428;2023-06-14T12:26:09;94765.47;;;25.05;23.76
79686;BME280;69153;47.918;11.428;2023-06-14T12:28:34;94767.53;;;25.25;22.42
79686;BME280;69153;47.918;11.428;2023-06-14T12:31:00;94765.44;;;25.32;23.14
79686;BME280;69153;47.918;11.428;2023-06-14T12:33:25;94761.47;;;24.93;22.13
79686;BME280;69153;47.918;11.428;2023-06-14T12:35:55;94767.41;;;24.65;22.93
79686;BME280;69153;47.918;11.428;2023-06-14T12:38:22;94766.34;;;24.81;23.50
79686;BME280;69153;47.918;11.428;2023-06-14T12:40:47;94762.09;;;24.86;22.67
79686;BME280;69153;47.918;11.428;2023-06-14T12:43:13;94764.66;;;24.52;22.84
79686;BME280;69153;47.918;11.428;2023-06-14T12:45:38;94757.81;;;24.77;22.91
79686;BME280;69153;47.918;11.428;2023-06-14T12:48:04;94753.47;;;25.14;23.76
79686;BME280;69153;47.918;11.428;2023-06-14T12:50:29;94762.75;;;25.18;23.74
79686;BME280;69153;47.918;11.428;2023-06-14T12:52:55;94764.00;;;25.31;23.59
79686;BME280;69153;47.918;11.428;2023-06-14T12:55:21;94761.38;;;25.38;22.66
79686;BME280;69153;47.918;11.428;2023-06-14T12:57:46;94767.22;;;25.29;23.03
79686;BME280;69153;47.918;11.428;2023-06-14T13:00:15;94771.25;;;25.49;22.13
79686;BME280;69153;47.918;11.428;2023-06-14T13:02:40;94766.25;;;25.40;22.30